Time;durP1;ratioP1;P1;durP2;ratioP2;P2;SDS_P1;SDS_P2;PMS_P1;PMS_P2;Temp;Humidity;BMP_temperature;BMP_pressure;BME280_temperature;BME280_humidity;BME280_pressure;Samples;Min_cycle;Max_cycle;Signal;HPM_P1;HPM_P2
2023/11/11 00:06:15;;;;;;;45.00;27.50;;;;;;;7.40;100.00;97655.79;269773;1282;22269;-86
2023/11/11 00:12:43;;;;;;;;;;;;;;;7.37;100.00;97651.35;272351;1278;22625;-86
2023/11/11 00:19:51;;;;;;;45.00;29.00;;;;;;;7.36;100.00;97652.83;272301;1277;23349;-86
2023/11/11 00:25:54;;;;;;;43.10;28.50;;;;;;;7.32;100.00;97658.10;271358;1276;22624;-86
2023/11/11 00:31:56;;;;;;;42.10;25.90;;;;;;;7.28;100.00;97662.75;272516;1276;22988;-87
2023/11/11 00:46:02;;;;;;;43.10;27.90;;;;;;;7.30;100.00;97661.13;270733;1281;164163;-86
2023/11/11 00:52:31;;;;;;;37.90;24.40;;;;;;;7.34;100.00;97665.58;271474;1276;22236;-87
2023/11/11 00:58:33;;;;;;;40.40;25.00;;;;;;;7.39;100.00;97660.99;270844;1276;23355;-88
2023/11/11 01:04:36;;;;;;;37.30;22.90;;;;;;;7.41;100.00;97658.42;270639;1277;22186;-87
2023/11/11 01:10:55;;;;;;;43.20;25.30;;;;;;;7.41;100.00;97658.82;272336;1283;22221;-86
2023/11/11 01:17:52;;;;;;;35.80;23.70;;;;;;;7.42;100.00;97656.72;272554;1283;22213;-86
2023/11/11 01:25:17;;;;;;;36.30;23.80;;;;;;;7.42;100.00;97656.80;272471;1277;22202;-86
2023/11/11 01:32:14;;;;;;;45.50;28.60;;;;;;;7.43;100.00;97653.61;272536;1277;22196;-87
2023/11/11 01:38:34;;;;;;;45.70;29.00;;;;;;;7.45;100.00;97647.25;272366;1271;23430;-86
2023/11/11 01:44:36;;;;;;;42.60;29.20;;;;;;;7.46;100.00;97642.34;271924;1274;23942;-88
2023/11/11 01:51:23;;;;;;;38.50;25.60;;;;;;;7.47;100.00;97640.39;272622;1277;22214;-87
2023/11/11 02:04:44;;;;;;;16.00;9.20;;;;;;;7.33;100.00;97627.85;272135;1276;22151;-88
2023/11/11 02:11:41;;;;;;;14.20;8.50;;;;;;;7.26;100.00;97618.80;272698;1278;22265;-86
2023/11/11 02:18:33;;;;;;;10.60;7.20;;;;;;;7.23;100.00;97611.66;272581;1282;22236;-87
2023/11/11 02:25:01;;;;;;;11.00;6.60;;;;;;;7.24;100.00;97608.70;272700;1282;23063;-87
2023/11/11 02:37:33;;;;;;;10.00;6.70;;;;;;;7.27;100.00;97605.27;271123;1274;22257;-87
2023/11/11 02:43:35;;;;;;;11.20;7.40;;;;;;;7.23;100.00;97589.95;271576;1274;22456;-88
2023/11/11 02:49:37;;;;;;;11.10;8.00;;;;;;;7.21;100.00;97582.41;270577;1274;23204;-87
2023/11/11 02:55:39;;;;;;;12.30;7.50;;;;;;;7.19;100.00;97579.45;270530;1274;22417;-88
2023/11/11 03:01:41;;;;;;;10.20;7.00;;;;;;;7.13;100.00;97585.20;272224;1274;22382;-87
2023/11/11 03:07:44;;;;;;;11.70;7.30;;;;;;;7.16;100.00;97589.86;272134;1274;23212;-87
2023/11/11 03:13:48;;;;;;;10.90;7.10;;;;;;;7.20;100.00;97594.23;272131;1274;23471;-87
2023/11/11 03:19:50;;;;;;;12.10;7.30;;;;;;;7.17;100.00;97587.45;272098;1274;23619;-88
2023/11/11 03:25:52;;;;;;;13.90;9.30;;;;;;;7.07;100.00;97584.10;271518;1274;23322;-87
2023/11/11 03:31:55;;;;;;;18.80;10.50;;;;;;;7.07;100.00;97578.80;270049;1274;22309;-87
2023/11/11 03:37:57;;;;;;;13.00;8.30;;;;;;;7.12;100.00;97574.15;272147;1271;23862;-87
2023/11/11 03:43:59;;;;;;;9.60;6.30;;;;;;;7.09;100.00;97559.77;271877;1274;23684;-87
2023/11/11 03:50:01;;;;;;;6.90;5.40;;;;;;;7.07;100.00;97555.95;271658;1274;22381;-87
2023/11/11 03:56:04;;;;;;;10.40;5.60;;;;;;;7.09;100.00;97557.81;271346;1274;22214;-87
2023/11/11 04:02:06;;;;;;;8.40;5.00;;;;;;;7.13;100.00;97562.25;271879;1265;22272;-88
2023/11/11 04:08:08;;;;;;;6.30;4.20;;;;;;;7.14;100.00;97560.55;271862;1264;23443;-87
2023/11/11 04:14:10;;;;;;;6.90;3.60;;;;;;;7.13;100.00;97547.17;272132;1261;22378;-87
2023/11/11 04:20:13;;;;;;;9.90;3.90;;;;;;;7.08;100.00;97541.64;271989;1274;22782;-87
2023/11/11 04:26:15;;;;;;;5.80;3.60;;;;;;;7.01;100.00;97537.20;271699;1274;22444;-89
2023/11/11 04:32:18;;;;;;;8.80;4.10;;;;;;;6.99;100.00;97533.94;271749;1273;22432;-88
2023/11/11 04:38:23;;;;;;;5.10;3.60;;;;;;;7.01;100.00;97526.39;271742;1274;22446;-88
2023/11/11 04:44:25;;;;;;;6.70;4.40;;;;;;;7.03;100.00;97517.61;271819;1274;22234;-88
2023/11/11 04:50:27;;;;;;;6.80;4.30;;;;;;;7.08;100.00;97518.48;271739;1274;22238;-87
2023/11/11 04:56:46;;;;;;;5.80;3.90;;;;;;;7.10;100.00;97526.64;272041;1274;23038;-87
2023/11/11 05:02:48;;;;;;;6.40;4.20;;;;;;;7.09;100.00;97531.84;271892;1267;22212;-87
2023/11/11 05:08:51;;;;;;;6.10;3.90;;;;;;;7.06;100.00;97539.63;271882;1274;22239;-86
2023/11/11 05:15:07;;;;;;;8.60;4.40;;;;;;;7.02;100.00;97545.27;271679;1274;22447;-89
2023/11/11 05:21:10;;;;;;;14.10;4.70;;;;;;;6.99;100.00;97543.11;271837;1274;22202;-88
2023/11/11 05:27:13;;;;;;;7.90;4.30;;;;;;;7.03;100.00;97545.05;272031;1274;22268;-87
2023/11/11 05:33:15;;;;;;;6.80;4.30;;;;;;;7.03;100.00;97547.54;270008;1274;23238;-87
2023/11/11 05:39:17;;;;;;;11.20;4.60;;;;;;;7.00;100.00;97545.98;269739;1275;23809;-87
2023/11/11 05:45:19;;;;;;;9.30;4.90;;;;;;;6.91;100.00;97541.61;269011;1274;22697;-88
2023/11/11 05:51:24;;;;;;;6.10;4.60;;;;;;;6.93;100.00;97537.50;271321;1274;22471;-88
2023/11/11 05:57:29;;;;;;;5.90;4.00;;;;;;;6.94;100.00;97546.13;271842;1274;22469;-87
2023/11/11 06:12:15;;;;;;;5.70;3.90;;;;;;;7.01;100.00;97553.36;272465;1278;23047;-87
2023/11/11 06:18:19;;;;;;;6.40;3.40;;;;;;;7.01;100.00;97562.38;271817;1274;22314;-86
2023/11/11 06:24:21;;;;;;;5.00;4.20;;;;;;;7.01;100.00;97566.34;271512;1274;22398;-88
2023/11/11 06:30:23;;;;;;;6.90;4.50;;;;;;;7.05;100.00;97572.04;271528;1274;22370;-88
2023/11/11 06:36:25;;;;;;;9.40;5.00;;;;;;;6.97;100.00;97572.25;271417;1274;23568;-87
2023/11/11 06:50:17;;;;;;;10.30;4.60;;;;;;;7.10;100.00;97577.57;272206;1274;22387;-88
2023/11/11 07:05:05;;;;;;;;;;;;;;;;;;;;;
2023/11/11 07:11:18;;;;;;;6.00;4.60;;;;;;;7.21;100.00;97579.15;270513;1274;22208;-88
2023/11/11 07:17:20;;;;;;;5.90;4.60;;;;;;;7.25;100.00;97577.04;271840;1274;22200;-88
2023/11/11 07:24:14;;;;;;;6.10;3.90;;;;;;;7.26;100.00;97581.80;271877;1274;22327;-88
2023/11/11 07:30:16;;;;;;;6.20;4.50;;;;;;;7.30;100.00;97581.64;272334;1278;22329;-87
2023/11/11 07:36:42;;;;;;;5.90;4.70;;;;;;;7.31;100.00;97578.15;272031;1277;22409;-87
2023/11/11 07:43:10;;;;;;;6.30;5.10;;;;;;;7.32;100.00;97573.95;271850;1274;22296;-87
2023/11/11 10:12:07;;;;;;;44.40;28.20;;;;;;;8.04;100.00;97544.65;272338;1274;22322;-87
2023/11/11 10:18:09;;;;;;;49.10;29.80;;;;;;;8.10;100.00;97541.45;271747;1275;23679;-87
2023/11/11 10:24:11;;;;;;;51.90;30.30;;;;;;;8.12;100.00;97533.73;271638;1274;23419;-87
2023/11/11 10:30:19;;;;;;;52.90;29.60;;;;;;;8.20;100.00;97527.11;271664;1274;22409;-87
2023/11/11 10:36:22;;;;;;;54.10;30.50;;;;;;;8.27;100.00;97522.35;271355;1274;23375;-86
2023/11/11 10:42:26;;;;;;;54.60;31.70;;;;;;;8.38;100.00;97518.33;271337;1274;22359;-87
2023/11/11 10:48:32;;;;;;;58.20;32.80;;;;;;;8.46;100.00;97511.44;271380;1275;23022;-88
2023/11/11 10:54:35;;;;;;;58.10;33.50;;;;;;;8.51;100.00;97500.83;271368;1274;22435;-89
2023/11/11 11:00:37;;;;;;;50.20;31.80;;;;;;;8.59;100.00;97496.89;271465;1274;22421;-86
2023/11/11 11:06:58;;;;;;;55.50;32.90;;;;;;;8.66;100.00;97495.70;271489;1274;22406;-88
2023/11/11 11:13:08;;;;;;;53.60;31.60;;;;;;;8.74;100.00;97490.90;271644;1274;22533;-87
2023/11/11 11:19:16;;;;;;;53.10;32.30;;;;;;;8.82;100.00;97488.42;271533;1275;24083;-87
2023/11/11 11:25:48;;;;;;;50.70;30.20;;;;;;;8.90;100.00;97488.77;271682;1274;22211;-85
2023/11/11 11:32:06;;;;;;;47.90;29.20;;;;;;;8.94;100.00;97484.76;271880;1270;22211;-86
2023/11/11 11:38:10;;;;;;;50.90;30.70;;;;;;;8.95;100.00;97484.61;271593;1274;22382;-87
2023/11/11 11:44:12;;;;;;;48.70;29.60;;;;;;;8.97;100.00;97488.48;271372;1274;22563;-87
2023/11/11 11:50:14;;;;;;;45.40;28.70;;;;;;;8.92;100.00;97490.70;271415;1275;22514;-87
2023/11/11 11:56:27;;;;;;;49.00;30.90;;;;;;;8.91;100.00;97486.34;271251;1275;22408;-87
2023/11/11 12:02:32;;;;;;;47.10;29.30;;;;;;;8.94;100.00;97483.91;271585;1271;22820;-87
2023/11/11 12:08:34;;;;;;;55.70;31.80;;;;;;;8.95;100.00;97484.91;271632;1272;23620;-87
2023/11/11 12:14:38;;;;;;;50.20;31.60;;;;;;;8.97;100.00;97481.86;271541;1274;22454;-87
2023/11/11 12:20:42;;;;;;;52.50;32.20;;;;;;;8.95;100.00;97478.76;271453;1275;22901;-87
2023/11/11 12:26:48;;;;;;;59.50;32.60;;;;;;;8.97;100.00;97476.87;271500;1273;23195;-86
2023/11/11 12:33:03;;;;;;;59.30;34.80;;;;;;;8.97;100.00;97467.44;271278;1275;23323;-86
2023/11/11 12:39:08;;;;;;;58.90;35.10;;;;;;;8.93;100.00;97462.32;271413;1274;22215;-86
2023/11/11 12:45:16;;;;;;;60.20;35.30;;;;;;;8.88;100.00;97462.04;271034;1274;329535;-87
2023/11/11 12:51:31;;;;;;;61.10;35.60;;;;;;;8.88;100.00;97472.02;270964;1275;22409;-87
2023/11/11 12:57:34;;;;;;;60.10;33.60;;;;;;;8.86;100.00;97473.67;271336;1274;24077;-88
2023/11/11 13:03:37;;;;;;;59.60;34.50;;;;;;;8.81;100.00;97471.38;271288;1275;22373;-87
2023/11/11 13:09:43;;;;;;;66.70;36.10;;;;;;;8.79;100.00;97469.04;271358;1274;22534;-86
2023/11/11 13:15:45;;;;;;;56.90;35.10;;;;;;;8.79;100.00;97469.27;271179;1274;23683;-88
2023/11/11 13:21:48;;;;;;;56.10;33.30;;;;;;;8.77;100.00;97469.12;271357;1274;22400;-87
2023/11/11 13:27:51;;;;;;;62.00;35.60;;;;;;;8.78;100.00;97466.32;271118;1275;23666;-88
2023/11/11 13:33:54;;;;;;;57.70;36.00;;;;;;;8.78;100.00;97463.42;271227;1269;22390;-87
2023/11/11 13:39:57;;;;;;;58.00;35.10;;;;;;;8.77;100.00;97460.32;271277;1274;23762;-88
2023/11/11 13:45:59;;;;;;;66.00;38.50;;;;;;;8.77;100.00;97463.83;271470;1274;22459;-87
2023/11/11 13:52:01;;;;;;;64.90;36.80;;;;;;;8.72;100.00;97470.40;271276;1273;22401;-88
2023/11/11 13:58:04;;;;;;;70.20;41.90;;;;;;;8.65;100.00;97477.46;271228;1274;23388;-87
2023/11/11 14:04:06;;;;;;;69.60;40.10;;;;;;;8.60;100.00;97484.66;271218;1273;23501;-87
2023/11/11 14:10:08;;;;;;;69.40;41.90;;;;;;;8.52;100.00;97487.89;271361;1274;22428;-87
2023/11/11 14:16:10;;;;;;;71.40;41.50;;;;;;;8.42;100.00;97491.84;271286;1273;24165;-86
2023/11/11 14:22:13;;;;;;;71.60;42.30;;;;;;;8.34;100.00;97502.93;271224;1274;23611;-87
2023/11/11 14:28:14;;;;;;;73.00;43.10;;;;;;;8.27;100.00;97509.34;271268;1275;22403;-86
2023/11/11 14:34:17;;;;;;;77.10;46.10;;;;;;;8.22;100.00;97504.52;271389;1274;22213;-87
2023/11/11 14:40:19;;;;;;;84.10;45.60;;;;;;;8.21;100.00;97507.39;271268;1274;24952;-87
2023/11/11 14:46:26;;;;;;;80.90;45.60;;;;;;;8.20;100.00;97505.83;270888;1274;23266;-86
2023/11/11 14:52:28;;;;;;;79.50;46.40;;;;;;;8.18;100.00;97508.17;271117;1275;22400;-87
2023/11/11 14:58:30;;;;;;;83.80;45.70;;;;;;;8.16;100.00;97509.42;271211;1267;23759;-87
2023/11/11 15:04:31;;;;;;;79.50;45.60;;;;;;;8.14;100.00;97511.53;271201;1273;22393;-86
2023/11/11 15:10:33;;;;;;;82.40;46.50;;;;;;;8.12;100.00;97517.61;271246;1274;22543;-86
2023/11/11 15:16:35;;;;;;;84.40;48.40;;;;;;;8.10;100.00;97516.54;271091;1274;22442;-87
2023/11/11 15:22:38;;;;;;;89.70;48.50;;;;;;;8.07;100.00;97519.96;271192;1274;22451;-86
2023/11/11 15:28:41;;;;;;;83.20;50.50;;;;;;;8.02;100.00;97525.27;271259;1274;25004;-86
2023/11/11 15:34:43;;;;;;;86.00;49.60;;;;;;;7.97;100.00;97529.95;271152;1274;22437;-88
2023/11/11 15:40:47;;;;;;;87.80;49.80;;;;;;;7.93;100.00;97532.20;271289;1274;23267;-87
2023/11/11 15:46:50;;;;;;;90.80;51.80;;;;;;;7.91;100.00;97537.44;271128;1274;22427;-87
2023/11/11 15:52:52;;;;;;;98.30;54.00;;;;;;;7.85;100.00;97536.13;271242;1274;22541;-86
2023/11/11 15:58:54;;;;;;;96.50;54.30;;;;;;;7.82;100.00;97539.86;271139;1274;22384;-87
2023/11/11 16:04:56;;;;;;;95.60;53.70;;;;;;;7.79;100.00;97547.80;271330;1274;22420;-86
2023/11/11 16:10:58;;;;;;;89.50;50.60;;;;;;;7.76;100.00;97550.62;271226;1275;22525;-86
2023/11/11 16:17:00;;;;;;;100.20;54.30;;;;;;;7.76;100.00;97555.13;271237;1264;23668;-87
2023/11/11 16:23:02;;;;;;;88.80;49.20;;;;;;;7.74;100.00;97561.83;271321;1269;22347;-88
2023/11/11 16:29:04;;;;;;;86.00;49.70;;;;;;;7.73;100.00;97566.02;271366;1275;23527;-86
2023/11/11 16:35:08;;;;;;;88.20;51.80;;;;;;;7.73;100.00;97572.80;271341;1274;22385;-87
2023/11/11 16:41:11;;;;;;;88.20;51.70;;;;;;;7.73;100.00;97575.52;271175;1274;22430;-87
2023/11/11 16:47:13;;;;;;;94.00;52.80;;;;;;;7.74;100.00;97576.93;271265;1272;22401;-87
2023/11/11 16:53:15;;;;;;;89.30;50.10;;;;;;;7.72;100.00;97578.17;271411;1270;22569;-88
2023/11/11 16:59:20;;;;;;;90.90;52.00;;;;;;;7.72;100.00;97577.48;271181;1274;22523;-88
2023/11/11 17:05:22;;;;;;;98.50;54.40;;;;;;;7.74;100.00;97578.55;271169;1274;22495;-88
2023/11/11 17:11:25;;;;;;;96.20;54.00;;;;;;;7.75;100.00;97581.44;271209;1274;22379;-87
2023/11/11 17:17:28;;;;;;;98.10;56.30;;;;;;;7.75;100.00;97582.84;271309;1274;22521;-88
2023/11/11 17:23:30;;;;;;;107.90;61.50;;;;;;;7.72;100.00;97583.61;271432;1274;22452;-88
2023/11/11 17:29:32;;;;;;;103.70;60.10;;;;;;;7.67;100.00;97587.34;271279;1274;22415;-89
2023/11/11 17:35:34;;;;;;;101.00;56.20;;;;;;;7.65;100.00;97586.34;271213;1274;22857;-88
2023/11/11 17:41:37;;;;;;;90.90;52.10;;;;;;;7.65;100.00;97592.64;271279;1267;23673;-90
2023/11/11 17:47:39;;;;;;;97.20;54.90;;;;;;;7.63;100.00;97599.18;271463;1274;22404;-88
2023/11/11 17:53:42;;;;;;;57.50;33.70;;;;;;;7.53;100.00;97609.05;263744;1274;10001421;-91
2023/11/11 17:59:45;;;;;;;32.70;20.60;;;;;;;7.38;100.00;97624.83;271453;1274;22447;-88
2023/11/11 18:05:47;;;;;;;21.40;12.10;;;;;;;7.20;100.00;97623.85;271185;1274;22370;-87
2023/11/11 18:11:49;;;;;;;14.90;8.80;;;;;;;7.00;100.00;97625.27;271145;1267;22466;-86
2023/11/11 18:17:51;;;;;;;14.60;8.90;;;;;;;6.86;100.00;97637.58;270968;1274;22460;-88
2023/11/11 18:23:54;;;;;;;12.90;8.40;;;;;;;6.80;100.00;97648.27;271016;1274;23114;-88
2023/11/11 18:29:56;;;;;;;15.00;8.30;;;;;;;6.76;100.00;97653.39;271313;1274;22397;-88
2023/11/11 18:35:58;;;;;;;12.30;6.90;;;;;;;6.75;100.00;97653.54;271120;1267;23328;-87
2023/11/11 18:42:00;;;;;;;12.10;8.10;;;;;;;6.75;100.00;97649.66;271163;1274;22385;-87
2023/11/11 18:48:02;;;;;;;14.60;8.80;;;;;;;6.74;100.00;97651.43;271239;1274;23639;-88
2023/11/11 18:54:04;;;;;;;30.60;18.20;;;;;;;6.77;100.00;97651.69;271478;1274;24067;-87
2023/11/11 19:00:08;;;;;;;35.30;22.40;;;;;;;6.79;100.00;97655.43;271375;1274;22432;-87
2023/11/11 19:06:10;;;;;;;32.40;18.80;;;;;;;6.74;100.00;97661.46;271183;1274;22432;-89
2023/11/11 19:12:12;;;;;;;26.00;15.60;;;;;;;6.67;100.00;97668.95;271333;1274;22491;-87
2023/11/11 19:18:14;;;;;;;22.90;13.40;;;;;;;6.61;100.00;97667.99;271172;1274;22396;-87
2023/11/11 19:24:16;;;;;;;21.60;12.20;;;;;;;6.58;100.00;97674.05;271151;1273;22434;-88
2023/11/11 19:30:22;;;;;;;21.70;11.10;;;;;;;6.58;100.00;97680.27;271209;1274;23284;-88
2023/11/11 19:36:24;;;;;;;18.40;10.30;;;;;;;6.54;100.00;97685.36;271210;1269;23302;-89
2023/11/11 19:42:26;;;;;;;13.40;8.70;;;;;;;6.50;100.00;97683.55;271396;1274;22430;-88
2023/11/11 19:48:29;;;;;;;14.50;9.10;;;;;;;6.51;100.00;97682.77;271397;1274;22460;-89
2023/11/11 19:54:31;;;;;;;15.20;9.30;;;;;;;6.51;100.00;97680.45;271407;1274;22775;-87
2023/11/11 20:00:33;;;;;;;11.30;7.60;;;;;;;6.51;100.00;97683.40;271225;1274;23420;-89
2023/11/11 20:06:35;;;;;;;12.90;8.40;;;;;;;6.52;100.00;97683.88;271237;1274;23184;-87
2023/11/11 20:12:37;;;;;;;11.80;7.50;;;;;;;6.50;100.00;97690.38;271270;1274;22433;-87
2023/11/11 20:18:39;;;;;;;12.30;8.60;;;;;;;6.46;100.00;97689.49;271193;1274;22395;-88
2023/11/11 20:24:42;;;;;;;13.00;9.00;;;;;;;6.48;100.00;97689.13;271188;1274;22432;-87
2023/11/11 20:30:43;;;;;;;16.60;9.60;;;;;;;6.48;100.00;97690.60;271129;1274;22412;-88
2023/11/11 20:36:46;;;;;;;15.00;10.30;;;;;;;6.42;100.00;97686.14;271271;1274;23175;-89
2023/11/11 20:42:51;;;;;;;15.70;9.90;;;;;;;6.42;100.00;97685.84;271276;1274;22434;-88
2023/11/11 20:48:53;;;;;;;17.30;10.40;;;;;;;6.34;100.00;97687.71;271089;1274;22412;-87
2023/11/11 20:54:55;;;;;;;18.20;11.50;;;;;;;6.23;100.00;97691.61;271136;1275;22398;-87
2023/11/11 21:00:58;;;;;;;19.50;12.80;;;;;;;6.23;100.00;97692.84;271235;1274;22384;-86
2023/11/11 21:07:00;;;;;;;20.80;13.10;;;;;;;6.27;100.00;97695.42;271273;1274;22388;-88
2023/11/11 21:13:02;;;;;;;21.50;14.20;;;;;;;6.34;100.00;97693.85;271098;1274;22503;-88
2023/11/11 21:19:05;;;;;;;23.80;14.00;;;;;;;6.38;100.00;97692.33;271387;1274;22552;-88
2023/11/11 21:25:07;;;;;;;20.80;14.00;;;;;;;6.42;100.00;97693.45;271238;1274;22408;-88
2023/11/11 21:31:09;;;;;;;23.20;14.70;;;;;;;6.44;100.00;97702.55;271145;1274;23822;-90
2023/11/11 21:37:11;;;;;;;22.10;15.10;;;;;;;6.45;100.00;97702.16;271232;1274;22432;-87
2023/11/11 21:43:13;;;;;;;25.80;14.60;;;;;;;6.43;100.00;97703.02;271278;1274;23114;-89
2023/11/11 21:49:16;;;;;;;23.90;15.70;;;;;;;6.44;100.00;97706.28;271189;1274;22926;-89
2023/11/11 21:55:18;;;;;;;28.10;15.70;;;;;;;6.41;100.00;97710.37;271291;1274;23884;-89
2023/11/11 22:01:20;;;;;;;27.40;16.90;;;;;;;6.41;100.00;97715.41;271208;1274;22419;-88
2023/11/11 22:07:22;;;;;;;24.90;15.10;;;;;;;6.42;100.00;97710.52;271393;1274;22808;-88
2023/11/11 22:13:24;;;;;;;21.80;14.90;;;;;;;6.38;100.00;97709.17;271349;1274;22414;-89
2023/11/11 22:19:27;;;;;;;25.30;15.00;;;;;;;6.37;100.00;97708.00;271448;1274;22389;-87
2023/11/11 22:25:29;;;;;;;24.90;16.00;;;;;;;6.35;100.00;97708.54;271319;1275;23684;-88
2023/11/11 22:31:33;;;;;;;26.70;16.90;;;;;;;6.32;100.00;97711.09;271474;1274;22512;-88
2023/11/11 22:37:39;;;;;;;27.30;16.90;;;;;;;6.31;100.00;97716.05;271375;1274;22473;-90
2023/11/11 22:43:41;;;;;;;29.10;16.80;;;;;;;6.29;100.00;97720.23;271371;1274;22451;-87
2023/11/11 22:49:44;;;;;;;32.80;18.90;;;;;;;6.27;100.00;97717.24;271535;1274;22384;-88
2023/11/11 22:55:49;;;;;;;38.70;19.30;;;;;;;6.24;100.00;97716.61;271343;1274;22548;-88
2023/11/11 23:01:51;;;;;;;36.50;20.70;;;;;;;6.23;100.00;97717.14;271460;1274;22428;-88
2023/11/11 23:07:53;;;;;;;35.60;22.20;;;;;;;6.23;100.00;97719.08;271548;1274;23210;-88
2023/11/11 23:13:55;;;;;;;37.90;23.60;;;;;;;6.23;100.00;97721.41;271330;1274;22448;-88
2023/11/11 23:19:57;;;;;;;43.00;25.50;;;;;;;6.24;100.00;97719.71;271310;1274;22429;-89
2023/11/11 23:25:59;;;;;;;50.00;30.10;;;;;;;6.25;100.00;97718.79;271382;1274;23202;-88
2023/11/11 23:32:01;;;;;;;53.60;32.50;;;;;;;6.25;100.00;97724.84;271373;1275;22524;-87
2023/11/11 23:38:03;;;;;;;57.50;32.80;;;;;;;6.27;100.00;97725.32;271342;1271;22587;-87
2023/11/11 23:44:11;;;;;;;61.90;36.30;;;;;;;6.28;100.00;97728.73;271498;1274;22514;-88
2023/11/11 23:50:13;;;;;;;71.40;41.60;;;;;;;6.28;100.00;97733.80;271502;1274;22465;-88
2023/11/11 23:56:15;;;;;;;80.60;43.60;;;;;;;6.26;100.00;97736.35;271539;1274;22444;-87
